sensor_id;sensor_type;location;lat;lon;timestamp;P1;durP1;ratioP1;P2;durP2;ratioP2
75297;SDS011;63896;45.990;18.688;2024-03-02T00:02:11;49.20;;;21.90;;
75297;SDS011;63896;45.990;18.688;2024-03-02T00:05:21;50.07;;;21.20;;
75297;SDS011;63896;45.990;18.688;2024-03-02T00:08:25;43.60;;;19.77;;
75297;SDS011;63896;45.990;18.688;2024-03-02T00:11:28;39.80;;;18.98;;
75297;SDS011;63896;45.990;18.688;2024-03-02T00:14:31;42.75;;;18.65;;
75297;SDS011;63896;45.990;18.688;2024-03-02T00:17:34;49.28;;;21.98;;
75297;SDS011;63896;45.990;18.688;2024-03-02T00:20:37;50.90;;;22.50;;
75297;SDS011;63896;45.990;18.688;2024-03-02T00:23:39;53.15;;;23.48;;
75297;SDS011;63896;45.990;18.688;2024-03-02T00:26:44;46.33;;;21.65;;
75297;SDS011;63896;45.990;18.688;2024-03-02T00:29:47;53.05;;;22.27;;
75297;SDS011;63896;45.990;18.688;2024-03-02T00:32:50;49.23;;;20.87;;
75297;SDS011;63896;45.990;18.688;2024-03-02T00:35:55;42.47;;;20.40;;
75297;SDS011;63896;45.990;18.688;2024-03-02T00:38:58;44.47;;;19.65;;
75297;SDS011;63896;45.990;18.688;2024-03-02T00:42:01;37.75;;;18.23;;
75297;SDS011;63896;45.990;18.688;2024-03-02T00:45:07;40.50;;;17.15;;
75297;SDS011;63896;45.990;18.688;2024-03-02T00:48:10;43.72;;;18.65;;
75297;SDS011;63896;45.990;18.688;2024-03-02T00:51:13;47.37;;;19.53;;
75297;SDS011;63896;45.990;18.688;2024-03-02T00:54:18;42.53;;;18.45;;
75297;SDS011;63896;45.990;18.688;2024-03-02T00:57:22;41.08;;;18.13;;
75297;SDS011;63896;45.990;18.688;2024-03-02T01:00:28;37.28;;;17.10;;
75297;SDS011;63896;45.990;18.688;2024-03-02T01:03:31;37.42;;;16.67;;
75297;SDS011;63896;45.990;18.688;2024-03-02T01:06:35;35.30;;;16.23;;
75297;SDS011;63896;45.990;18.688;2024-03-02T01:09:38;36.05;;;17.08;;
75297;SDS011;63896;45.990;18.688;2024-03-02T01:12:41;34.90;;;15.98;;
75297;SDS011;63896;45.990;18.688;2024-03-02T01:15:44;33.72;;;16.00;;
75297;SDS011;63896;45.990;18.688;2024-03-02T01:18:46;34.90;;;15.88;;
75297;SDS011;63896;45.990;18.688;2024-03-02T01:21:50;36.67;;;15.83;;
75297;SDS011;63896;45.990;18.688;2024-03-02T01:24:53;37.10;;;14.95;;
75297;SDS011;63896;45.990;18.688;2024-03-02T01:27:56;35.53;;;15.38;;
75297;SDS011;63896;45.990;18.688;2024-03-02T01:30:59;36.92;;;15.95;;
75297;SDS011;63896;45.990;18.688;2024-03-02T01:34:02;38.15;;;15.77;;
75297;SDS011;63896;45.990;18.688;2024-03-02T01:37:05;37.60;;;16.13;;
75297;SDS011;63896;45.990;18.688;2024-03-02T01:40:08;38.92;;;17.10;;
75297;SDS011;63896;45.990;18.688;2024-03-02T01:43:12;39.90;;;17.52;;
75297;SDS011;63896;45.990;18.688;2024-03-02T01:46:15;42.30;;;17.05;;
75297;SDS011;63896;45.990;18.688;2024-03-02T01:49:18;39.47;;;16.52;;
75297;SDS011;63896;45.990;18.688;2024-03-02T01:52:21;39.47;;;16.20;;
75297;SDS011;63896;45.990;18.688;2024-03-02T01:55:23;41.72;;;17.60;;
75297;SDS011;63896;45.990;18.688;2024-03-02T01:58:27;38.70;;;17.17;;
75297;SDS011;63896;45.990;18.688;2024-03-02T02:01:30;43.20;;;17.50;;
75297;SDS011;63896;45.990;18.688;2024-03-02T02:04:33;43.15;;;16.35;;
75297;SDS011;63896;45.990;18.688;2024-03-02T02:07:36;38.43;;;17.40;;
75297;SDS011;63896;45.990;18.688;2024-03-02T02:10:39;37.63;;;16.73;;
75297;SDS011;63896;45.990;18.688;2024-03-02T02:13:42;34.80;;;15.70;;
75297;SDS011;63896;45.990;18.688;2024-03-02T02:16:45;35.72;;;16.33;;
75297;SDS011;63896;45.990;18.688;2024-03-02T02:19:48;37.92;;;17.13;;
75297;SDS011;63896;45.990;18.688;2024-03-02T02:22:57;37.90;;;17.30;;
75297;SDS011;63896;45.990;18.688;2024-03-02T02:26:05;41.35;;;17.27;;
75297;SDS011;63896;45.990;18.688;2024-03-02T02:29:07;37.08;;;16.63;;
75297;SDS011;63896;45.990;18.688;2024-03-02T02:32:10;37.85;;;16.77;;
75297;SDS011;63896;45.990;18.688;2024-03-02T02:35:13;35.33;;;15.63;;
75297;SDS011;63896;45.990;18.688;2024-03-02T02:38:16;41.30;;;18.20;;
75297;SDS011;63896;45.990;18.688;2024-03-02T02:41:19;38.03;;;17.48;;
75297;SDS011;63896;45.990;18.688;2024-03-02T02:44:21;35.90;;;15.80;;
75297;SDS011;63896;45.990;18.688;2024-03-02T02:47:25;36.25;;;15.98;;
75297;SDS011;63896;45.990;18.688;2024-03-02T02:50:28;37.88;;;16.60;;
75297;SDS011;63896;45.990;18.688;2024-03-02T02:53:31;43.43;;;17.10;;
75297;SDS011;63896;45.990;18.688;2024-03-02T02:56:34;37.17;;;16.42;;
75297;SDS011;63896;45.990;18.688;2024-03-02T02:59:36;38.42;;;17.17;;
75297;SDS011;63896;45.990;18.688;2024-03-02T03:02:42;37.67;;;16.75;;
75297;SDS011;63896;45.990;18.688;2024-03-02T03:05:46;40.55;;;17.45;;
75297;SDS011;63896;45.990;18.688;2024-03-02T03:08:48;39.00;;;17.60;;
75297;SDS011;63896;45.990;18.688;2024-03-02T03:11:51;36.33;;;16.83;;
75297;SDS011;63896;45.990;18.688;2024-03-02T03:14:54;42.25;;;18.05;;
75297;SDS011;63896;45.990;18.688;2024-03-02T03:17:57;41.50;;;17.80;;
75297;SDS011;63896;45.990;18.688;2024-03-02T03:21:00;44.85;;;18.67;;
75297;SDS011;63896;45.990;18.688;2024-03-02T03:24:03;39.17;;;17.53;;
75297;SDS011;63896;45.990;18.688;2024-03-02T03:27:06;37.88;;;17.52;;
75297;SDS011;63896;45.990;18.688;2024-03-02T03:30:09;39.25;;;17.67;;
75297;SDS011;63896;45.990;18.688;2024-03-02T03:33:12;42.10;;;17.13;;
75297;SDS011;63896;45.990;18.688;2024-03-02T03:36:16;41.25;;;18.02;;
75297;SDS011;63896;45.990;18.688;2024-03-02T03:39:18;40.10;;;17.97;;
75297;SDS011;63896;45.990;18.688;2024-03-02T03:42:21;39.90;;;18.33;;
75297;SDS011;63896;45.990;18.688;2024-03-02T03:45:24;43.08;;;17.45;;
75297;SDS011;63896;45.990;18.688;2024-03-02T03:48:28;39.63;;;17.13;;
75297;SDS011;63896;45.990;18.688;2024-03-02T03:51:33;36.58;;;16.85;;
75297;SDS011;63896;45.990;18.688;2024-03-02T03:54:36;38.20;;;18.23;;
75297;SDS011;63896;45.990;18.688;2024-03-02T03:57:43;44.20;;;17.67;;
75297;SDS011;63896;45.990;18.688;2024-03-02T04:00:46;39.33;;;16.95;;
75297;SDS011;63896;45.990;18.688;2024-03-02T04:03:49;41.85;;;18.05;;
75297;SDS011;63896;45.990;18.688;2024-03-02T04:06:52;37.90;;;18.30;;
75297;SDS011;63896;45.990;18.688;2024-03-02T04:09:54;41.27;;;18.10;;
75297;SDS011;63896;45.990;18.688;2024-03-02T04:12:57;42.17;;;17.73;;
75297;SDS011;63896;45.990;18.688;2024-03-02T04:16:00;41.92;;;17.58;;
75297;SDS011;63896;45.990;18.688;2024-03-02T04:19:03;41.45;;;17.88;;
75297;SDS011;63896;45.990;18.688;2024-03-02T04:22:06;38.95;;;18.48;;
75297;SDS011;63896;45.990;18.688;2024-03-02T04:25:22;46.40;;;19.10;;
75297;SDS011;63896;45.990;18.688;2024-03-02T04:28:25;41.42;;;17.92;;
75297;SDS011;63896;45.990;18.688;2024-03-02T04:31:27;41.78;;;18.73;;
75297;SDS011;63896;45.990;18.688;2024-03-02T04:34:31;47.78;;;18.27;;
75297;SDS011;63896;45.990;18.688;2024-03-02T04:37:34;40.38;;;17.95;;
75297;SDS011;63896;45.990;18.688;2024-03-02T04:40:37;40.57;;;18.23;;
75297;SDS011;63896;45.990;18.688;2024-03-02T04:43:39;39.65;;;17.48;;
75297;SDS011;63896;45.990;18.688;2024-03-02T04:46:42;41.28;;;17.83;;
75297;SDS011;63896;45.990;18.688;2024-03-02T04:49:45;45.25;;;17.92;;
75297;SDS011;63896;45.990;18.688;2024-03-02T04:52:48;41.30;;;17.63;;
75297;SDS011;63896;45.990;18.688;2024-03-02T04:55:51;42.07;;;17.77;;
75297;SDS011;63896;45.990;18.688;2024-03-02T04:59:26;51.55;;;18.25;;
75297;SDS011;63896;45.990;18.688;2024-03-02T05:02:28;42.55;;;17.75;;
75297;SDS011;63896;45.990;18.688;2024-03-02T05:05:31;42.78;;;18.80;;
75297;SDS011;63896;45.990;18.688;2024-03-02T05:08:34;38.55;;;17.42;;
75297;SDS011;63896;45.990;18.688;2024-03-02T05:11:37;40.10;;;16.87;;
75297;SDS011;63896;45.990;18.688;2024-03-02T05:14:39;39.95;;;16.95;;
75297;SDS011;63896;45.990;18.688;2024-03-02T05:17:42;45.22;;;17.75;;
75297;SDS011;63896;45.990;18.688;2024-03-02T05:20:45;41.20;;;17.02;;
75297;SDS011;63896;45.990;18.688;2024-03-02T05:23:48;40.25;;;18.05;;
75297;SDS011;63896;45.990;18.688;2024-03-02T05:26:51;44.73;;;19.03;;
75297;SDS011;63896;45.990;18.688;2024-03-02T05:29:53;41.33;;;17.70;;
75297;SDS011;63896;45.990;18.688;2024-03-02T05:33:00;43.67;;;18.27;;
75297;SDS011;63896;45.990;18.688;2024-03-02T05:36:04;47.08;;;18.83;;
75297;SDS011;63896;45.990;18.688;2024-03-02T05:39:07;45.28;;;18.27;;
75297;SDS011;63896;45.990;18.688;2024-03-02T05:42:12;43.00;;;18.23;;
75297;SDS011;63896;45.990;18.688;2024-03-02T05:45:15;43.47;;;18.33;;
75297;SDS011;63896;45.990;18.688;2024-03-02T05:48:19;47.42;;;18.80;;
75297;SDS011;63896;45.990;18.688;2024-03-02T05:51:21;43.92;;;18.83;;
75297;SDS011;63896;45.990;18.688;2024-03-02T05:54:24;43.78;;;17.58;;
75297;SDS011;63896;45.990;18.688;2024-03-02T05:57:27;45.90;;;19.07;;
75297;SDS011;63896;45.990;18.688;2024-03-02T06:00:41;42.67;;;18.85;;
75297;SDS011;63896;45.990;18.688;2024-03-02T06:03:44;43.53;;;18.55;;
75297;SDS011;63896;45.990;18.688;2024-03-02T06:06:47;44.10;;;17.92;;
75297;SDS011;63896;45.990;18.688;2024-03-02T06:09:52;45.28;;;19.48;;
75297;SDS011;63896;45.990;18.688;2024-03-02T06:12:55;46.60;;;19.53;;
75297;SDS011;63896;45.990;18.688;2024-03-02T06:15:58;42.13;;;19.00;;
75297;SDS011;63896;45.990;18.688;2024-03-02T06:19:01;46.13;;;19.15;;
75297;SDS011;63896;45.990;18.688;2024-03-02T06:22:04;38.72;;;18.10;;
75297;SDS011;63896;45.990;18.688;2024-03-02T06:25:08;42.70;;;18.88;;
75297;SDS011;63896;45.990;18.688;2024-03-02T06:28:11;44.87;;;18.50;;
75297;SDS011;63896;45.990;18.688;2024-03-02T06:31:13;49.40;;;19.13;;
75297;SDS011;63896;45.990;18.688;2024-03-02T06:34:16;44.45;;;19.23;;
75297;SDS011;63896;45.990;18.688;2024-03-02T06:37:19;44.95;;;19.45;;
75297;SDS011;63896;45.990;18.688;2024-03-02T06:40:22;44.88;;;19.65;;
75297;SDS011;63896;45.990;18.688;2024-03-02T06:43:25;46.97;;;19.27;;
75297;SDS011;63896;45.990;18.688;2024-03-02T06:46:27;41.63;;;18.13;;
75297;SDS011;63896;45.990;18.688;2024-03-02T06:49:30;43.97;;;17.85;;
75297;SDS011;63896;45.990;18.688;2024-03-02T06:52:33;44.22;;;19.55;;
75297;SDS011;63896;45.990;18.688;2024-03-02T06:55:35;42.80;;;18.85;;
75297;SDS011;63896;45.990;18.688;2024-03-02T06:58:38;37.40;;;18.77;;
75297;SDS011;63896;45.990;18.688;2024-03-02T07:01:41;41.95;;;19.33;;
75297;SDS011;63896;45.990;18.688;2024-03-02T07:04:45;41.75;;;18.58;;
75297;SDS011;63896;45.990;18.688;2024-03-02T07:07:48;40.92;;;18.23;;
75297;SDS011;63896;45.990;18.688;2024-03-02T07:10:50;46.92;;;20.95;;
75297;SDS011;63896;45.990;18.688;2024-03-02T07:13:53;49.37;;;20.77;;
75297;SDS011;63896;45.990;18.688;2024-03-02T07:16:56;50.85;;;22.38;;
75297;SDS011;63896;45.990;18.688;2024-03-02T07:19:59;60.75;;;26.85;;
75297;SDS011;63896;45.990;18.688;2024-03-02T07:23:02;60.97;;;26.27;;
75297;SDS011;63896;45.990;18.688;2024-03-02T07:26:04;54.93;;;24.67;;
75297;SDS011;63896;45.990;18.688;2024-03-02T07:29:11;62.30;;;26.93;;
75297;SDS011;63896;45.990;18.688;2024-03-02T07:32:14;50.40;;;22.83;;
75297;SDS011;63896;45.990;18.688;2024-03-02T07:35:17;51.72;;;22.33;;
75297;SDS011;63896;45.990;18.688;2024-03-02T07:38:20;51.38;;;23.98;;
75297;SDS011;63896;45.990;18.688;2024-03-02T07:41:24;49.78;;;23.25;;
75297;SDS011;63896;45.990;18.688;2024-03-02T07:44:27;52.37;;;24.40;;
75297;SDS011;63896;45.990;18.688;2024-03-02T07:47:30;53.30;;;24.92;;
75297;SDS011;63896;45.990;18.688;2024-03-02T07:50:33;56.35;;;26.38;;
75297;SDS011;63896;45.990;18.688;2024-03-02T07:53:37;60.42;;;25.42;;
75297;SDS011;63896;45.990;18.688;2024-03-02T07:56:40;58.65;;;25.50;;
75297;SDS011;63896;45.990;18.688;2024-03-02T07:59:42;55.50;;;25.33;;
75297;SDS011;63896;45.990;18.688;2024-03-02T08:02:45;63.63;;;27.27;;
75297;SDS011;63896;45.990;18.688;2024-03-02T08:05:48;48.97;;;22.67;;
75297;SDS011;63896;45.990;18.688;2024-03-02T08:08:51;53.58;;;22.73;;
75297;SDS011;63896;45.990;18.688;2024-03-02T08:11:54;51.47;;;22.23;;
75297;SDS011;63896;45.990;18.688;2024-03-02T08:14:57;55.67;;;23.07;;
75297;SDS011;63896;45.990;18.688;2024-03-02T08:17:59;51.40;;;22.42;;
75297;SDS011;63896;45.990;18.688;2024-03-02T08:21:02;48.70;;;22.42;;
75297;SDS011;63896;45.990;18.688;2024-03-02T08:24:05;47.90;;;21.05;;
75297;SDS011;63896;45.990;18.688;2024-03-02T08:27:09;49.03;;;21.80;;
75297;SDS011;63896;45.990;18.688;2024-03-02T08:30:12;52.13;;;23.17;;
75297;SDS011;63896;45.990;18.688;2024-03-02T08:33:15;45.92;;;21.98;;
75297;SDS011;63896;45.990;18.688;2024-03-02T08:36:18;47.22;;;21.88;;
75297;SDS011;63896;45.990;18.688;2024-03-02T08:39:22;52.10;;;20.42;;
75297;SDS011;63896;45.990;18.688;2024-03-02T08:42:24;47.92;;;21.33;;
75297;SDS011;63896;45.990;18.688;2024-03-02T08:45:28;52.50;;;23.07;;
75297;SDS011;63896;45.990;18.688;2024-03-02T08:48:31;55.17;;;25.98;;
75297;SDS011;63896;45.990;18.688;2024-03-02T08:51:33;61.78;;;27.73;;
75297;SDS011;63896;45.990;18.688;2024-03-02T08:54:36;59.33;;;28.55;;
75297;SDS011;63896;45.990;18.688;2024-03-02T08:57:42;56.08;;;25.17;;
75297;SDS011;63896;45.990;18.688;2024-03-02T09:00:46;52.70;;;24.80;;
75297;SDS011;63896;45.990;18.688;2024-03-02T09:03:49;52.75;;;23.30;;
75297;SDS011;63896;45.990;18.688;2024-03-02T09:06:53;46.40;;;21.58;;
75297;SDS011;63896;45.990;18.688;2024-03-02T09:09:55;47.15;;;20.88;;
75297;SDS011;63896;45.990;18.688;2024-03-02T09:12:58;45.15;;;20.25;;
75297;SDS011;63896;45.990;18.688;2024-03-02T09:16:02;44.93;;;20.23;;
75297;SDS011;63896;45.990;18.688;2024-03-02T09:19:06;45.15;;;20.08;;
75297;SDS011;63896;45.990;18.688;2024-03-02T09:22:09;43.72;;;21.40;;
75297;SDS011;63896;45.990;18.688;2024-03-02T09:25:12;58.63;;;28.08;;
75297;SDS011;63896;45.990;18.688;2024-03-02T09:28:15;47.13;;;24.40;;
75297;SDS011;63896;45.990;18.688;2024-03-02T09:31:18;49.50;;;22.70;;
75297;SDS011;63896;45.990;18.688;2024-03-02T09:34:21;59.25;;;29.25;;
75297;SDS011;63896;45.990;18.688;2024-03-02T09:37:25;48.92;;;23.77;;
75297;SDS011;63896;45.990;18.688;2024-03-02T09:40:29;40.30;;;20.60;;
75297;SDS011;63896;45.990;18.688;2024-03-02T09:43:32;42.42;;;20.52;;
75297;SDS011;63896;45.990;18.688;2024-03-02T09:46:35;43.90;;;21.87;;
75297;SDS011;63896;45.990;18.688;2024-03-02T09:49:38;38.70;;;21.70;;
75297;SDS011;63896;45.990;18.688;2024-03-02T09:52:42;42.97;;;21.15;;
75297;SDS011;63896;45.990;18.688;2024-03-02T09:55:46;49.63;;;22.13;;
75297;SDS011;63896;45.990;18.688;2024-03-02T09:58:49;41.75;;;21.90;;
75297;SDS011;63896;45.990;18.688;2024-03-02T10:01:59;46.43;;;22.70;;
75297;SDS011;63896;45.990;18.688;2024-03-02T10:05:03;41.53;;;21.75;;
75297;SDS011;63896;45.990;18.688;2024-03-02T10:08:06;45.97;;;22.98;;
75297;SDS011;63896;45.990;18.688;2024-03-02T10:11:09;47.22;;;23.20;;
75297;SDS011;63896;45.990;18.688;2024-03-02T10:14:13;47.05;;;23.83;;
75297;SDS011;63896;45.990;18.688;2024-03-02T10:17:17;44.90;;;22.70;;
75297;SDS011;63896;45.990;18.688;2024-03-02T10:20:24;43.03;;;23.58;;
75297;SDS011;63896;45.990;18.688;2024-03-02T10:23:27;46.35;;;24.02;;
75297;SDS011;63896;45.990;18.688;2024-03-02T10:26:30;46.90;;;24.33;;
75297;SDS011;63896;45.990;18.688;2024-03-02T10:29:33;47.53;;;24.58;;
75297;SDS011;63896;45.990;18.688;2024-03-02T10:32:36;50.20;;;24.30;;
75297;SDS011;63896;45.990;18.688;2024-03-02T10:35:40;44.53;;;23.92;;
75297;SDS011;63896;45.990;18.688;2024-03-02T10:38:43;46.33;;;24.70;;
75297;SDS011;63896;45.990;18.688;2024-03-02T10:41:47;44.22;;;24.63;;
75297;SDS011;63896;45.990;18.688;2024-03-02T10:44:54;47.25;;;24.25;;
75297;SDS011;63896;45.990;18.688;2024-03-02T10:47:57;43.43;;;24.20;;
75297;SDS011;63896;45.990;18.688;2024-03-02T10:51:03;42.72;;;24.33;;
75297;SDS011;63896;45.990;18.688;2024-03-02T10:54:06;49.55;;;24.95;;
75297;SDS011;63896;45.990;18.688;2024-03-02T10:57:09;45.75;;;24.92;;
75297;SDS011;63896;45.990;18.688;2024-03-02T11:00:14;46.35;;;25.20;;
75297;SDS011;63896;45.990;18.688;2024-03-02T11:03:17;47.67;;;25.00;;
75297;SDS011;63896;45.990;18.688;2024-03-02T11:06:21;48.97;;;27.00;;
75297;SDS011;63896;45.990;18.688;2024-03-02T11:09:26;45.90;;;25.55;;
75297;SDS011;63896;45.990;18.688;2024-03-02T11:16:12;42.65;;;23.67;;
75297;SDS011;63896;45.990;18.688;2024-03-02T11:19:24;46.13;;;24.80;;
75297;SDS011;63896;45.990;18.688;2024-03-02T11:22:28;47.05;;;24.00;;
75297;SDS011;63896;45.990;18.688;2024-03-02T11:25:32;44.03;;;22.90;;
75297;SDS011;63896;45.990;18.688;2024-03-02T11:28:35;42.63;;;24.50;;
75297;SDS011;63896;45.990;18.688;2024-03-02T11:31:58;41.63;;;23.73;;
75297;SDS011;63896;45.990;18.688;2024-03-02T11:35:03;39.87;;;22.63;;
75297;SDS011;63896;45.990;18.688;2024-03-02T11:38:06;39.33;;;24.27;;
75297;SDS011;63896;45.990;18.688;2024-03-02T11:41:09;46.15;;;25.05;;
75297;SDS011;63896;45.990;18.688;2024-03-02T11:44:14;40.67;;;24.20;;
75297;SDS011;63896;45.990;18.688;2024-03-02T11:47:17;37.90;;;23.80;;
75297;SDS011;63896;45.990;18.688;2024-03-02T11:50:29;41.13;;;25.10;;
75297;SDS011;63896;45.990;18.688;2024-03-02T11:53:42;41.72;;;25.13;;
75297;SDS011;63896;45.990;18.688;2024-03-02T11:56:48;41.92;;;24.40;;
75297;SDS011;63896;45.990;18.688;2024-03-02T11:59:51;37.15;;;23.05;;
75297;SDS011;63896;45.990;18.688;2024-03-02T12:06:04;38.07;;;24.20;;
75297;SDS011;63896;45.990;18.688;2024-03-02T12:09:08;35.92;;;24.52;;
75297;SDS011;63896;45.990;18.688;2024-03-02T12:12:14;35.25;;;23.77;;
75297;SDS011;63896;45.990;18.688;2024-03-02T12:15:26;33.60;;;22.17;;
75297;SDS011;63896;45.990;18.688;2024-03-02T12:18:30;35.05;;;22.65;;
75297;SDS011;63896;45.990;18.688;2024-03-02T12:21:33;35.77;;;23.40;;
75297;SDS011;63896;45.990;18.688;2024-03-02T12:24:36;38.15;;;24.25;;
75297;SDS011;63896;45.990;18.688;2024-03-02T12:27:39;38.88;;;22.73;;
75297;SDS011;63896;45.990;18.688;2024-03-02T12:30:43;38.08;;;21.58;;
75297;SDS011;63896;45.990;18.688;2024-03-02T12:33:46;38.75;;;22.83;;
75297;SDS011;63896;45.990;18.688;2024-03-02T12:36:49;42.27;;;22.37;;
75297;SDS011;63896;45.990;18.688;2024-03-02T12:39:55;37.78;;;22.17;;
75297;SDS011;63896;45.990;18.688;2024-03-02T12:42:58;37.25;;;21.23;;
75297;SDS011;63896;45.990;18.688;2024-03-02T12:46:01;37.75;;;20.58;;
75297;SDS011;63896;45.990;18.688;2024-03-02T12:49:06;36.58;;;19.42;;
75297;SDS011;63896;45.990;18.688;2024-03-02T12:52:12;31.53;;;18.27;;
75297;SDS011;63896;45.990;18.688;2024-03-02T12:55:16;33.97;;;20.88;;
75297;SDS011;63896;45.990;18.688;2024-03-02T12:58:22;28.50;;;16.77;;
75297;SDS011;63896;45.990;18.688;2024-03-02T13:01:25;30.92;;;19.35;;
75297;SDS011;63896;45.990;18.688;2024-03-02T13:04:28;29.67;;;18.95;;
75297;SDS011;63896;45.990;18.688;2024-03-02T13:07:33;28.53;;;17.93;;
75297;SDS011;63896;45.990;18.688;2024-03-02T13:10:36;29.52;;;18.63;;
75297;SDS011;63896;45.990;18.688;2024-03-02T13:13:40;35.28;;;20.98;;
75297;SDS011;63896;45.990;18.688;2024-03-02T13:16:44;31.98;;;18.92;;
75297;SDS011;63896;45.990;18.688;2024-03-02T13:19:53;28.77;;;18.45;;
75297;SDS011;63896;45.990;18.688;2024-03-02T13:22:56;30.40;;;19.57;;
75297;SDS011;63896;45.990;18.688;2024-03-02T13:25:59;32.10;;;19.50;;
75297;SDS011;63896;45.990;18.688;2024-03-02T13:29:02;30.65;;;20.00;;
75297;SDS011;63896;45.990;18.688;2024-03-02T13:32:05;30.77;;;19.35;;
75297;SDS011;63896;45.990;18.688;2024-03-02T13:35:08;29.30;;;18.95;;
75297;SDS011;63896;45.990;18.688;2024-03-02T13:38:13;25.17;;;16.80;;
75297;SDS011;63896;45.990;18.688;2024-03-02T13:41:16;23.38;;;17.27;;
75297;SDS011;63896;45.990;18.688;2024-03-02T13:44:19;21.67;;;14.77;;
75297;SDS011;63896;45.990;18.688;2024-03-02T13:47:22;27.33;;;16.83;;
75297;SDS011;63896;45.990;18.688;2024-03-02T13:50:25;23.50;;;16.58;;
75297;SDS011;63896;45.990;18.688;2024-03-02T13:53:28;17.27;;;10.80;;
75297;SDS011;63896;45.990;18.688;2024-03-02T13:56:31;26.25;;;15.00;;
75297;SDS011;63896;45.990;18.688;2024-03-02T13:59:35;22.30;;;12.90;;
75297;SDS011;63896;45.990;18.688;2024-03-02T14:02:38;18.45;;;12.68;;
75297;SDS011;63896;45.990;18.688;2024-03-02T14:05:42;19.10;;;13.00;;
75297;SDS011;63896;45.990;18.688;2024-03-02T14:08:46;21.53;;;12.80;;
75297;SDS011;63896;45.990;18.688;2024-03-02T14:11:50;21.40;;;12.20;;
75297;SDS011;63896;45.990;18.688;2024-03-02T14:14:54;17.05;;;12.07;;
75297;SDS011;63896;45.990;18.688;2024-03-02T14:18:00;20.85;;;11.63;;
75297;SDS011;63896;45.990;18.688;2024-03-02T14:21:03;17.50;;;12.23;;
75297;SDS011;63896;45.990;18.688;2024-03-02T14:24:06;18.80;;;12.30;;
75297;SDS011;63896;45.990;18.688;2024-03-02T14:27:09;21.80;;;14.27;;
75297;SDS011;63896;45.990;18.688;2024-03-02T14:30:29;16.80;;;11.77;;
75297;SDS011;63896;45.990;18.688;2024-03-02T14:33:32;15.90;;;10.10;;
75297;SDS011;63896;45.990;18.688;2024-03-02T14:36:35;16.40;;;10.77;;
75297;SDS011;63896;45.990;18.688;2024-03-02T14:39:38;18.83;;;11.20;;
75297;SDS011;63896;45.990;18.688;2024-03-02T14:42:41;16.95;;;10.52;;
75297;SDS011;63896;45.990;18.688;2024-03-02T14:45:46;18.15;;;10.43;;
75297;SDS011;63896;45.990;18.688;2024-03-02T14:48:49;14.98;;;10.48;;
75297;SDS011;63896;45.990;18.688;2024-03-02T14:51:52;26.17;;;17.55;;
75297;SDS011;63896;45.990;18.688;2024-03-02T14:54:55;17.10;;;11.43;;
75297;SDS011;63896;45.990;18.688;2024-03-02T14:57:58;20.65;;;11.75;;
75297;SDS011;63896;45.990;18.688;2024-03-02T15:01:01;18.55;;;12.05;;
75297;SDS011;63896;45.990;18.688;2024-03-02T15:04:04;17.55;;;11.63;;
75297;SDS011;63896;45.990;18.688;2024-03-02T15:07:07;19.35;;;13.02;;
75297;SDS011;63896;45.990;18.688;2024-03-02T15:10:10;16.73;;;11.33;;
75297;SDS011;63896;45.990;18.688;2024-03-02T15:13:13;17.52;;;11.25;;
75297;SDS011;63896;45.990;18.688;2024-03-02T15:16:16;17.58;;;12.25;;
75297;SDS011;63896;45.990;18.688;2024-03-02T15:19:19;20.40;;;13.20;;
75297;SDS011;63896;45.990;18.688;2024-03-02T15:22:22;20.98;;;12.73;;
75297;SDS011;63896;45.990;18.688;2024-03-02T15:25:25;21.83;;;13.37;;
75297;SDS011;63896;45.990;18.688;2024-03-02T15:28:28;25.88;;;13.30;;
75297;SDS011;63896;45.990;18.688;2024-03-02T15:31:30;22.52;;;13.30;;
75297;SDS011;63896;45.990;18.688;2024-03-02T15:34:33;24.50;;;14.20;;
75297;SDS011;63896;45.990;18.688;2024-03-02T15:37:36;25.52;;;13.68;;
75297;SDS011;63896;45.990;18.688;2024-03-02T15:40:39;21.87;;;13.53;;
75297;SDS011;63896;45.990;18.688;2024-03-02T15:43:42;20.58;;;12.93;;
75297;SDS011;63896;45.990;18.688;2024-03-02T15:46:45;19.13;;;11.90;;
75297;SDS011;63896;45.990;18.688;2024-03-02T15:49:48;21.73;;;12.70;;
75297;SDS011;63896;45.990;18.688;2024-03-02T15:52:52;25.63;;;14.93;;
75297;SDS011;63896;45.990;18.688;2024-03-02T15:55:54;24.03;;;14.33;;
75297;SDS011;63896;45.990;18.688;2024-03-02T15:58:57;23.52;;;14.18;;
75297;SDS011;63896;45.990;18.688;2024-03-02T16:02:00;21.45;;;13.27;;
75297;SDS011;63896;45.990;18.688;2024-03-02T16:05:03;28.70;;;16.70;;
75297;SDS011;63896;45.990;18.688;2024-03-02T16:08:07;25.15;;;13.55;;
75297;SDS011;63896;45.990;18.688;2024-03-02T16:11:09;27.53;;;15.03;;
75297;SDS011;63896;45.990;18.688;2024-03-02T16:14:15;28.55;;;17.38;;
75297;SDS011;63896;45.990;18.688;2024-03-02T16:17:18;31.25;;;18.30;;
75297;SDS011;63896;45.990;18.688;2024-03-02T16:20:21;39.38;;;18.25;;
75297;SDS011;63896;45.990;18.688;2024-03-02T16:23:24;35.13;;;18.25;;
75297;SDS011;63896;45.990;18.688;2024-03-02T16:26:27;33.47;;;18.63;;
75297;SDS011;63896;45.990;18.688;2024-03-02T16:29:30;33.95;;;18.35;;
75297;SDS011;63896;45.990;18.688;2024-03-02T16:32:32;32.00;;;18.60;;
75297;SDS011;63896;45.990;18.688;2024-03-02T16:35:38;35.10;;;18.70;;
75297;SDS011;63896;45.990;18.688;2024-03-02T16:38:41;34.97;;;19.38;;
75297;SDS011;63896;45.990;18.688;2024-03-02T16:41:46;38.33;;;20.83;;
75297;SDS011;63896;45.990;18.688;2024-03-02T16:44:49;37.33;;;20.70;;
75297;SDS011;63896;45.990;18.688;2024-03-02T16:47:57;39.67;;;21.17;;
75297;SDS011;63896;45.990;18.688;2024-03-02T16:51:00;38.20;;;21.27;;
75297;SDS011;63896;45.990;18.688;2024-03-02T16:54:03;38.20;;;20.92;;
75297;SDS011;63896;45.990;18.688;2024-03-02T16:57:06;38.90;;;19.63;;
75297;SDS011;63896;45.990;18.688;2024-03-02T17:00:10;38.55;;;20.80;;
75297;SDS011;63896;45.990;18.688;2024-03-02T17:03:13;37.90;;;21.13;;
75297;SDS011;63896;45.990;18.688;2024-03-02T17:06:16;34.72;;;20.30;;
75297;SDS011;63896;45.990;18.688;2024-03-02T17:09:18;38.65;;;21.33;;
75297;SDS011;63896;45.990;18.688;2024-03-02T17:12:21;37.60;;;20.53;;
75297;SDS011;63896;45.990;18.688;2024-03-02T17:15:24;38.40;;;20.08;;
75297;SDS011;63896;45.990;18.688;2024-03-02T17:18:26;37.25;;;21.38;;
75297;SDS011;63896;45.990;18.688;2024-03-02T17:21:30;40.33;;;21.15;;
75297;SDS011;63896;45.990;18.688;2024-03-02T17:24:33;44.58;;;22.38;;
75297;SDS011;63896;45.990;18.688;2024-03-02T17:27:36;44.13;;;23.87;;
75297;SDS011;63896;45.990;18.688;2024-03-02T17:30:39;44.78;;;22.65;;
75297;SDS011;63896;45.990;18.688;2024-03-02T17:33:41;43.75;;;22.35;;
75297;SDS011;63896;45.990;18.688;2024-03-02T17:36:44;41.35;;;22.38;;
75297;SDS011;63896;45.990;18.688;2024-03-02T17:39:47;42.13;;;22.33;;
75297;SDS011;63896;45.990;18.688;2024-03-02T17:42:50;43.00;;;22.10;;
75297;SDS011;63896;45.990;18.688;2024-03-02T17:45:53;43.08;;;21.75;;